createdAt,value
2023-02-15T00:00:45.954Z,1.62
2023-02-15T00:03:14.444Z,1.62
2023-02-15T00:05:42.907Z,1.82
2023-02-15T00:08:13.140Z,1.66
2023-02-15T00:10:41.745Z,1.70
2023-02-15T00:13:10.256Z,1.64
2023-02-15T00:15:38.313Z,1.50
2023-02-15T00:18:07.964Z,1.59
2023-02-15T00:20:37.048Z,1.49
2023-02-15T00:23:07.141Z,1.62
2023-02-15T00:25:35.195Z,1.44
2023-02-15T00:28:06.681Z,1.48
2023-02-15T00:30:34.941Z,1.29
2023-02-15T00:33:03.687Z,1.05
2023-02-15T00:35:33.834Z,1.15
2023-02-15T00:38:01.993Z,1.28
2023-02-15T00:40:30.102Z,1.25
2023-02-15T00:42:59.747Z,1.41
2023-02-15T00:45:27.817Z,1.27
2023-02-15T00:47:55.939Z,1.31
2023-02-15T00:50:24.316Z,1.02
2023-02-15T00:52:53.817Z,1.24
2023-02-15T00:55:22.147Z,1.19
2023-02-15T00:57:50.435Z,1.32
2023-02-15T01:00:20.088Z,1.30
2023-02-15T01:02:48.531Z,1.19
2023-02-15T01:05:17.300Z,1.12
2023-02-15T01:07:45.507Z,1.18
2023-02-15T01:10:15.426Z,1.23
2023-02-15T01:12:43.578Z,1.31
2023-02-15T01:15:11.915Z,1.20
2023-02-15T01:17:40.296Z,1.25
2023-02-15T01:20:10.005Z,1.34
2023-02-15T01:22:38.093Z,1.28
2023-02-15T01:25:07.584Z,1.38
2023-02-15T01:27:37.820Z,1.36
2023-02-15T01:30:07.152Z,1.31
2023-02-15T01:32:35.380Z,1.41
2023-02-15T01:35:04.311Z,1.31
2023-02-15T01:37:33.078Z,1.45
2023-02-15T01:40:02.242Z,1.40
2023-02-15T01:42:32.391Z,1.22
2023-02-15T01:45:04.106Z,1.19
2023-02-15T01:47:38.007Z,1.01
2023-02-15T01:50:12.036Z,1.34
2023-02-15T01:52:43.328Z,1.19
2023-02-15T01:55:13.872Z,1.38
2023-02-15T01:57:42.921Z,1.46
2023-02-15T02:00:15.392Z,1.49
2023-02-15T02:02:46.264Z,0.82
2023-02-15T02:05:15.531Z,1.11
2023-02-15T02:07:49.242Z,0.93
2023-02-15T02:10:23.512Z,0.96
2023-02-15T02:12:55.174Z,1.19
2023-02-15T02:15:35.507Z,1.21
2023-02-15T02:18:17.049Z,1.16
2023-02-15T02:21:36.271Z,1.26
2023-02-15T02:24:26.310Z,0.97
2023-02-15T02:27:20.876Z,0.87
2023-02-15T02:30:27.104Z,1.05
2023-02-15T02:33:14.328Z,1.02
2023-02-15T02:35:50.949Z,1.00
2023-02-15T02:38:29.300Z,0.75
2023-02-15T02:41:07.859Z,0.97
2023-02-15T02:43:43.186Z,0.91
2023-02-15T02:46:20.583Z,1.17
2023-02-15T02:48:51.315Z,1.27
2023-02-15T02:51:22.632Z,1.23
2023-02-15T02:53:54.353Z,1.23
2023-02-15T02:56:29.738Z,1.20
2023-02-15T02:59:03.353Z,0.99
2023-02-15T03:01:35.832Z,1.24
2023-02-15T03:04:10.643Z,1.17
2023-02-15T03:06:43.975Z,1.18
2023-02-15T03:09:22.743Z,1.12
2023-02-15T03:11:52.763Z,1.08
2023-02-15T03:14:23.536Z,1.01
2023-02-15T03:16:54.140Z,1.25
2023-02-15T03:19:29.772Z,1.17
2023-02-15T03:22:10.528Z,1.23
2023-02-15T03:24:44.458Z,1.20
2023-02-15T03:27:18.418Z,1.20
2023-02-15T03:29:49.470Z,1.23
2023-02-15T03:32:19.015Z,1.26
2023-02-15T03:34:49.356Z,1.15
2023-02-15T03:37:25.014Z,0.89
2023-02-15T03:39:57.521Z,1.07
2023-02-15T03:42:30.839Z,1.15
2023-02-15T03:45:03.836Z,1.27
2023-02-15T03:47:36.315Z,1.09
2023-02-15T03:50:32.303Z,1.06
2023-02-15T03:53:03.042Z,1.04
2023-02-15T03:55:31.782Z,1.01
2023-02-15T03:58:17.480Z,1.16
2023-02-15T04:01:11.193Z,1.04
2023-02-15T04:03:43.771Z,1.05
2023-02-15T04:06:13.667Z,1.07
2023-02-15T04:08:58.935Z,1.11
2023-02-15T04:11:27.173Z,0.89
2023-02-15T04:13:57.770Z,1.03
2023-02-15T04:16:25.275Z,1.15
2023-02-15T04:19:11.140Z,1.15
2023-02-15T04:21:57.943Z,0.99
2023-02-15T04:24:43.189Z,0.86
2023-02-15T04:27:11.468Z,0.74
2023-02-15T04:29:39.779Z,0.89
2023-02-15T04:32:08.293Z,0.79
2023-02-15T04:34:38.171Z,0.71
2023-02-15T04:37:08.587Z,0.88
2023-02-15T04:39:36.751Z,0.97
2023-02-15T04:42:05.177Z,1.03
2023-02-15T04:44:33.442Z,1.02
2023-02-15T04:47:01.698Z,1.07
2023-02-15T04:49:30.018Z,1.07
2023-02-15T04:51:58.301Z,1.00
2023-02-15T04:54:28.263Z,0.86
2023-02-15T04:56:57.735Z,0.84
2023-02-15T04:59:26.077Z,0.79
2023-02-15T05:01:54.512Z,0.93
2023-02-15T05:04:23.045Z,0.95
2023-02-15T05:06:53.600Z,0.91
2023-02-15T05:09:22.221Z,0.89
2023-02-15T05:11:52.134Z,0.89
2023-02-15T05:14:20.783Z,0.96
2023-02-15T05:16:49.217Z,0.86
2023-02-15T05:19:17.795Z,0.89
2023-02-15T05:21:46.148Z,0.83
2023-02-15T05:24:31.892Z,0.82
2023-02-15T05:27:18.718Z,0.84
2023-02-15T05:29:47.009Z,0.68
2023-02-15T05:32:16.171Z,0.71
2023-02-15T05:34:44.441Z,0.97
2023-02-15T05:37:12.641Z,0.89
2023-02-15T05:39:40.822Z,0.89
2023-02-15T05:42:10.756Z,0.50
2023-02-15T05:44:39.124Z,0.72
2023-02-15T05:47:08.377Z,0.55
2023-02-15T05:49:37.010Z,0.51
2023-02-15T05:52:05.817Z,0.67
2023-02-15T05:54:36.067Z,0.59
2023-02-15T05:57:04.204Z,0.62
2023-02-15T05:59:36.923Z,0.77
2023-02-15T06:02:08.189Z,0.82
2023-02-15T06:04:36.430Z,0.74
2023-02-15T06:07:06.074Z,0.67
2023-02-15T06:09:34.774Z,0.82
2023-02-15T06:12:04.285Z,0.79
2023-02-15T06:14:34.060Z,0.88
2023-02-15T06:17:02.510Z,0.83
2023-02-15T06:19:31.154Z,0.94
2023-02-15T06:21:59.510Z,0.94
2023-02-15T06:24:28.079Z,0.80
2023-02-15T06:26:56.276Z,0.86
2023-02-15T06:29:26.867Z,0.81
2023-02-15T06:31:56.921Z,0.76
2023-02-15T06:34:25.106Z,0.96
2023-02-15T06:36:53.266Z,0.90
2023-02-15T06:39:21.618Z,1.00
2023-02-15T06:41:49.789Z,1.00
2023-02-15T06:44:18.390Z,1.01
2023-02-15T06:46:46.808Z,1.01
2023-02-15T06:49:16.576Z,1.00
2023-02-15T06:51:44.872Z,0.88
2023-02-15T06:54:13.576Z,0.92
2023-02-15T06:56:41.769Z,0.89
2023-02-15T06:59:10.256Z,0.78
2023-02-15T07:01:39.302Z,0.90
2023-02-15T07:04:07.584Z,0.99
2023-02-15T07:06:37.573Z,0.70
2023-02-15T07:09:06.541Z,0.73
2023-02-15T07:11:52.150Z,0.74
2023-02-15T07:14:21.020Z,0.83
2023-02-15T07:16:49.092Z,0.96
2023-02-15T07:19:17.461Z,0.86
2023-02-15T07:21:47.789Z,1.03
2023-02-15T07:24:16.560Z,1.10
2023-02-15T07:26:44.680Z,1.17
2023-02-15T07:29:13.041Z,1.14
2023-02-15T07:31:41.154Z,1.00
2023-02-15T07:34:09.447Z,0.98
2023-02-15T07:36:37.617Z,1.01
2023-02-15T07:39:07.188Z,1.14
2023-02-15T07:41:38.193Z,1.05
2023-02-15T07:44:07.320Z,1.15
2023-02-15T07:46:35.495Z,1.09
2023-02-15T07:49:05.029Z,1.15
2023-02-15T07:51:33.499Z,1.04
2023-02-15T07:54:03.390Z,1.08
2023-02-15T07:56:35.064Z,1.03
2023-02-15T07:59:06.305Z,1.11
2023-02-15T08:01:39.496Z,1.25
2023-02-15T08:04:12.194Z,1.23
2023-02-15T08:06:40.826Z,1.21
2023-02-15T08:09:11.549Z,1.32
2023-02-15T08:11:41.951Z,1.18
2023-02-15T08:14:12.036Z,1.09
2023-02-15T08:16:42.975Z,1.07
2023-02-15T08:19:14.128Z,1.11
2023-02-15T08:21:44.276Z,1.05
2023-02-15T08:24:14.018Z,1.09
2023-02-15T08:26:46.121Z,1.23
2023-02-15T08:29:16.177Z,1.32
2023-02-15T08:31:44.668Z,1.37
2023-02-15T08:34:16.275Z,1.43
2023-02-15T08:36:46.462Z,1.28
2023-02-15T08:39:16.417Z,1.18
2023-02-15T08:41:47.541Z,1.34
2023-02-15T08:44:20.132Z,1.36
2023-02-15T08:46:50.392Z,1.50
2023-02-15T08:49:20.237Z,1.31
2023-02-15T08:51:49.041Z,1.24
2023-02-15T08:54:19.754Z,1.35
2023-02-15T08:56:49.818Z,1.32
2023-02-15T08:59:20.588Z,1.32
2023-02-15T09:01:49.940Z,1.37
2023-02-15T09:04:18.741Z,1.25
2023-02-15T09:06:49.563Z,1.26
2023-02-15T09:09:18.488Z,1.31
2023-02-15T09:11:52.392Z,1.34
2023-02-15T09:14:25.665Z,1.32
2023-02-15T09:16:55.241Z,1.41
2023-02-15T09:19:25.287Z,1.35
2023-02-15T09:21:55.185Z,1.43
2023-02-15T09:24:23.980Z,1.42
2023-02-15T09:26:53.952Z,1.53
2023-02-15T09:29:23.820Z,1.52
2023-02-15T09:31:54.731Z,1.40
2023-02-15T09:34:25.607Z,1.57
2023-02-15T09:36:54.708Z,1.42
2023-02-15T09:39:25.836Z,1.47
2023-02-15T09:42:13.978Z,1.49
2023-02-15T09:44:58.339Z,1.61
2023-02-15T09:47:41.299Z,1.57
2023-02-15T09:50:20.278Z,1.67
2023-02-15T09:53:04.539Z,1.71
2023-02-15T09:55:51.182Z,1.86
2023-02-15T09:58:27.901Z,1.70
2023-02-15T10:01:04.578Z,1.82
2023-02-15T10:03:50.337Z,1.86
2023-02-15T10:06:34.012Z,1.76
2023-02-15T10:09:14.138Z,1.89
2023-02-15T10:11:59.057Z,1.95
2023-02-15T10:15:02.048Z,1.78
2023-02-15T10:17:47.982Z,1.90
2023-02-15T10:20:28.270Z,1.91
2023-02-15T10:23:19.817Z,1.88
2023-02-15T10:25:54.079Z,1.94
2023-02-15T10:28:29.398Z,2.14
2023-02-15T10:31:04.602Z,2.07
2023-02-15T10:33:41.401Z,2.16
2023-02-15T10:36:24.325Z,2.32
2023-02-15T10:38:59.459Z,2.18
2023-02-15T10:41:40.696Z,2.12
2023-02-15T10:44:24.751Z,2.07
2023-02-15T10:47:12.905Z,2.25
2023-02-15T10:49:55.755Z,2.17
2023-02-15T10:52:35.810Z,2.28
2023-02-15T10:55:14.946Z,2.32
2023-02-15T10:57:59.720Z,2.37
2023-02-15T11:00:40.360Z,2.45
2023-02-15T11:03:34.773Z,2.50
2023-02-15T11:06:13.371Z,2.38
2023-02-15T11:08:47.605Z,2.33
2023-02-15T11:11:23.964Z,2.39
2023-02-15T11:13:57.578Z,2.42
2023-02-15T11:16:30.828Z,2.38
2023-02-15T11:19:04.545Z,2.30
2023-02-15T11:21:40.093Z,2.59
2023-02-15T11:24:13.923Z,2.49
2023-02-15T11:26:45.721Z,2.44
2023-02-15T11:29:21.263Z,2.50
2023-02-15T11:31:55.684Z,2.55
2023-02-15T11:34:30.013Z,2.34
2023-02-15T11:37:02.579Z,2.39
2023-02-15T11:39:33.097Z,2.59
2023-02-15T11:42:07.157Z,2.53
2023-02-15T11:44:38.230Z,2.60
2023-02-15T11:47:12.607Z,2.57
2023-02-15T11:49:41.233Z,2.17
2023-02-15T11:52:15.841Z,2.48
2023-02-15T11:54:46.690Z,2.36
2023-02-15T11:57:23.078Z,2.29
2023-02-15T11:59:58.372Z,2.39
2023-02-15T12:02:28.635Z,2.36
2023-02-15T12:05:00.721Z,2.38
2023-02-15T12:07:35.475Z,2.20
2023-02-15T12:10:12.986Z,2.27
2023-02-15T12:12:41.415Z,2.14
2023-02-15T12:15:11.558Z,2.01
2023-02-15T12:17:42.731Z,2.19
2023-02-15T12:20:27.391Z,2.26
2023-02-15T12:23:03.542Z,2.21
2023-02-15T12:25:38.165Z,2.16
2023-02-15T12:28:19.403Z,2.18
2023-02-15T12:30:48.880Z,2.01
2023-02-15T12:33:22.948Z,2.22
2023-02-15T12:36:00.696Z,2.25
2023-02-15T12:38:32.166Z,2.14
2023-02-15T12:41:02.883Z,2.16
2023-02-15T12:43:35.623Z,2.08
2023-02-15T12:46:23.371Z,2.18
2023-02-15T12:49:09.133Z,2.23
2023-02-15T12:51:52.332Z,2.25
2023-02-15T12:54:41.505Z,2.39
2023-02-15T12:57:23.483Z,2.20
2023-02-15T12:59:53.824Z,2.39
2023-02-15T13:02:32.420Z,2.41
2023-02-15T13:05:10.338Z,2.38
2023-02-15T13:07:39.385Z,2.29
2023-02-15T13:10:23.784Z,2.39
2023-02-15T13:12:55.277Z,2.34
2023-02-15T13:15:35.463Z,2.37
2023-02-15T13:18:08.987Z,2.54
2023-02-15T13:20:44.148Z,2.52
2023-02-15T13:23:28.499Z,2.56
2023-02-15T13:26:00.950Z,2.50
2023-02-15T13:28:42.149Z,2.37
2023-02-15T13:31:16.180Z,2.27
2023-02-15T13:33:48.965Z,2.33
2023-02-15T13:36:26.437Z,2.25
2023-02-15T13:39:11.886Z,2.25
2023-02-15T13:41:53.941Z,2.28
2023-02-15T13:44:35.399Z,2.24
2023-02-15T13:47:18.782Z,2.15
2023-02-15T13:50:05.336Z,2.07
2023-02-15T13:52:42.784Z,2.15
2023-02-15T13:55:29.182Z,2.33
2023-02-15T13:58:25.360Z,2.36
2023-02-15T14:01:06.928Z,2.43
2023-02-15T14:04:02.572Z,2.46
2023-02-15T14:06:54.536Z,2.27
2023-02-15T14:09:33.552Z,2.32
2023-02-15T14:12:20.363Z,2.26
2023-02-15T14:15:10.552Z,2.36
2023-02-15T14:17:50.129Z,2.45
2023-02-15T14:20:25.914Z,2.49
2023-02-15T14:23:08.012Z,2.37
2023-02-15T14:25:42.682Z,2.40
2023-02-15T14:28:15.798Z,2.45
2023-02-15T14:30:49.260Z,2.47
2023-02-15T14:33:35.246Z,2.30
2023-02-15T14:36:07.954Z,2.25
2023-02-15T14:39:06.736Z,2.37
2023-02-15T14:41:41.992Z,2.41
2023-02-15T14:44:18.158Z,2.30
2023-02-15T14:46:57.598Z,2.38
2023-02-15T14:49:28.790Z,2.50
2023-02-15T14:52:02.940Z,2.42
2023-02-15T14:54:58.617Z,2.56
2023-02-15T14:57:35.921Z,2.29
2023-02-15T15:00:34.786Z,2.38
2023-02-15T15:03:14.198Z,2.30
2023-02-15T15:05:52.997Z,2.22
2023-02-15T15:08:31.530Z,2.46
2023-02-15T15:11:43.737Z,2.51
2023-02-15T15:14:34.396Z,2.41
2023-02-15T15:17:04.989Z,2.50
2023-02-15T15:20:15.178Z,2.30
2023-02-15T15:22:45.116Z,2.33
2023-02-15T15:25:46.233Z,2.42
2023-02-15T15:28:47.328Z,2.64
2023-02-15T15:31:23.170Z,2.60
2023-02-15T15:34:21.573Z,2.63
2023-02-15T15:37:33.710Z,2.52
2023-02-15T15:40:43.589Z,2.55
2023-02-15T15:43:35.082Z,2.45
2023-02-15T15:46:16.317Z,2.57
2023-02-15T15:48:44.751Z,2.58
2023-02-15T15:51:17.389Z,2.65
2023-02-15T15:53:51.511Z,2.34
2023-02-15T15:56:26.134Z,2.37
2023-02-15T15:58:58.361Z,2.36
2023-02-15T16:01:29.756Z,2.34
2023-02-15T16:04:00.303Z,2.41
2023-02-15T16:06:33.132Z,2.29
2023-02-15T16:09:21.051Z,2.47
2023-02-15T16:11:51.589Z,2.24
2023-02-15T16:14:28.905Z,2.15
2023-02-15T16:17:00.280Z,2.46
2023-02-15T16:19:32.235Z,2.45
2023-02-15T16:22:02.713Z,2.37
2023-02-15T16:24:54.412Z,2.23
2023-02-15T16:27:37.378Z,2.18
2023-02-15T16:30:26.767Z,2.32
2023-02-15T16:32:57.936Z,2.41
2023-02-15T16:35:26.091Z,2.34
2023-02-15T16:37:54.118Z,2.46
2023-02-15T16:40:41.261Z,2.44
2023-02-15T16:43:17.192Z,2.50
2023-02-15T16:45:46.080Z,2.52
2023-02-15T16:48:21.194Z,2.62
2023-02-15T16:50:53.505Z,2.51
2023-02-15T16:53:25.919Z,2.49
2023-02-15T16:55:57.632Z,2.58
2023-02-15T16:58:32.036Z,2.43
2023-02-15T17:01:02.635Z,2.45
2023-02-15T17:03:32.410Z,2.36
2023-02-15T17:06:05.128Z,2.13
2023-02-15T17:08:35.439Z,2.20
2023-02-15T17:11:15.477Z,2.17
2023-02-15T17:14:23.302Z,2.09
2023-02-15T17:16:55.124Z,2.18
2023-02-15T17:19:27.362Z,2.22
2023-02-15T17:21:57.751Z,2.17
2023-02-15T17:24:35.873Z,2.23
2023-02-15T17:27:12.665Z,2.20
2023-02-15T17:29:43.704Z,2.32
2023-02-15T17:32:22.660Z,2.36
2023-02-15T17:35:11.336Z,2.18
2023-02-15T17:37:48.838Z,2.05
2023-02-15T17:40:25.883Z,2.30
2023-02-15T17:42:57.350Z,2.38
2023-02-15T17:45:32.731Z,2.36
2023-02-15T17:48:05.594Z,2.34
2023-02-15T17:50:34.642Z,2.21
2023-02-15T17:53:03.369Z,2.36
2023-02-15T17:55:36.401Z,2.28
2023-02-15T17:58:09.361Z,2.49
2023-02-15T18:00:58.343Z,2.45
2023-02-15T18:03:48.252Z,2.38
2023-02-15T18:06:34.311Z,2.26
2023-02-15T18:09:19.518Z,2.36
2023-02-15T18:11:50.887Z,2.40
2023-02-15T18:14:21.936Z,2.37
2023-02-15T18:16:50.523Z,2.28
2023-02-15T18:19:21.475Z,2.44
2023-02-15T18:21:50.211Z,2.33
2023-02-15T18:24:21.028Z,2.37
2023-02-15T18:26:51.004Z,2.42
2023-02-15T18:29:22.861Z,2.53
2023-02-15T18:31:56.006Z,2.35
2023-02-15T18:34:28.346Z,2.33
2023-02-15T18:36:59.264Z,2.41
2023-02-15T18:39:45.781Z,2.49
2023-02-15T18:42:21.291Z,2.41
2023-02-15T18:44:52.390Z,2.40
2023-02-15T18:47:24.078Z,2.36
2023-02-15T18:49:52.689Z,2.23
2023-02-15T18:52:23.372Z,2.27
2023-02-15T18:54:54.046Z,2.29
2023-02-15T18:57:22.301Z,2.21
2023-02-15T18:59:52.028Z,2.17
2023-02-15T19:02:21.185Z,2.11
2023-02-15T19:04:49.605Z,2.09
2023-02-15T19:07:21.636Z,2.18
2023-02-15T19:09:53.735Z,2.12
2023-02-15T19:12:22.210Z,2.15
2023-02-15T19:14:53.384Z,2.22
2023-02-15T19:17:23.244Z,2.20
2023-02-15T19:19:52.658Z,2.21
2023-02-15T19:22:29.896Z,2.18
2023-02-15T19:25:01.043Z,2.18
2023-02-15T19:27:31.839Z,2.00
2023-02-15T19:30:03.160Z,2.12
2023-02-15T19:32:32.005Z,2.11
2023-02-15T19:35:00.172Z,2.01
2023-02-15T19:37:36.315Z,2.11
2023-02-15T19:40:05.354Z,1.99
2023-02-15T19:42:34.961Z,1.74
2023-02-15T19:45:14.479Z,2.02
2023-02-15T19:47:43.655Z,1.87
2023-02-15T19:50:16.436Z,2.05
2023-02-15T19:52:45.343Z,1.97
2023-02-15T19:55:22.595Z,2.07
2023-02-15T19:57:52.453Z,2.12
2023-02-15T20:00:25.963Z,2.11
2023-02-15T20:02:55.130Z,2.05
2023-02-15T20:05:24.620Z,2.13
2023-02-15T20:07:54.517Z,1.97
2023-02-15T20:10:25.092Z,2.11
2023-02-15T20:12:54.003Z,2.13
2023-02-15T20:15:27.301Z,2.10
2023-02-15T20:17:57.415Z,2.04
2023-02-15T20:20:30.491Z,2.10
2023-02-15T20:23:00.491Z,2.08
2023-02-15T20:25:30.215Z,2.05
2023-02-15T20:27:59.477Z,1.85
2023-02-15T20:30:31.462Z,1.95
2023-02-15T20:33:00.096Z,1.90
2023-02-15T20:35:30.204Z,1.93
2023-02-15T20:38:00.586Z,1.91
2023-02-15T20:40:31.626Z,1.94
2023-02-15T20:42:59.998Z,2.00
2023-02-15T20:45:31.454Z,2.11
2023-02-15T20:48:02.135Z,2.01
2023-02-15T20:50:33.443Z,2.05
2023-02-15T20:53:03.722Z,2.01
2023-02-15T20:55:33.875Z,2.00
2023-02-15T20:58:02.678Z,2.08
2023-02-15T21:00:33.430Z,2.04
2023-02-15T21:03:03.169Z,2.00
2023-02-15T21:05:34.203Z,1.97
2023-02-15T21:08:03.956Z,2.13
2023-02-15T21:10:35.809Z,2.05
2023-02-15T21:13:05.026Z,2.22
2023-02-15T21:15:36.477Z,2.14
2023-02-15T21:18:07.133Z,2.14
2023-02-15T21:20:37.269Z,2.14
2023-02-15T21:23:07.363Z,2.08
2023-02-15T21:25:38.388Z,2.07
2023-02-15T21:28:08.823Z,2.07
2023-02-15T21:30:38.708Z,1.93
2023-02-15T21:33:07.006Z,1.94
2023-02-15T21:35:38.118Z,1.99
2023-02-15T21:38:08.105Z,2.06
2023-02-15T21:40:36.369Z,1.92
2023-02-15T21:43:24.786Z,1.82
2023-02-15T21:46:12.237Z,2.05
2023-02-15T21:48:40.852Z,2.05
2023-02-15T21:51:27.460Z,2.12
2023-02-15T21:53:56.007Z,1.96
2023-02-15T21:56:28.182Z,1.93
2023-02-15T21:58:56.390Z,1.98
2023-02-15T22:01:28.453Z,1.98
2023-02-15T22:03:59.341Z,1.92
2023-02-15T22:06:27.606Z,1.90
2023-02-15T22:08:57.031Z,1.82
2023-02-15T22:11:25.646Z,1.82
2023-02-15T22:13:53.731Z,1.82
2023-02-15T22:16:24.754Z,1.85
2023-02-15T22:18:54.705Z,1.82
2023-02-15T22:21:26.767Z,1.73
2023-02-15T22:23:55.118Z,1.88
2023-02-15T22:26:26.466Z,1.87
2023-02-15T22:28:55.343Z,1.84
2023-02-15T22:31:24.774Z,1.70
2023-02-15T22:33:55.563Z,1.92
2023-02-15T22:36:26.225Z,1.90
2023-02-15T22:38:55.226Z,1.88
2023-02-15T22:41:28.596Z,1.81
2023-02-15T22:43:59.028Z,1.78
2023-02-15T22:46:27.933Z,1.85
2023-02-15T22:48:57.650Z,1.86
2023-02-15T22:51:26.815Z,1.92
2023-02-15T22:53:55.571Z,1.85
2023-02-15T22:56:29.108Z,1.83
2023-02-15T22:59:02.562Z,1.72
2023-02-15T23:01:33.278Z,1.72
2023-02-15T23:04:05.322Z,1.73
2023-02-15T23:06:34.726Z,1.78
2023-02-15T23:09:03.267Z,1.80
2023-02-15T23:11:34.144Z,1.78
2023-02-15T23:14:04.260Z,1.84
2023-02-15T23:16:35.072Z,1.82
2023-02-15T23:19:04.821Z,1.88
2023-02-15T23:21:35.138Z,1.86
2023-02-15T23:24:19.978Z,1.87
2023-02-15T23:26:49.115Z,1.80
2023-02-15T23:29:20.353Z,1.76
2023-02-15T23:31:51.680Z,1.77
2023-02-15T23:34:25.825Z,1.77
2023-02-15T23:36:54.190Z,1.87
2023-02-15T23:39:42.161Z,1.70
2023-02-15T23:42:14.571Z,1.75
2023-02-15T23:44:45.141Z,1.74
2023-02-15T23:47:21.641Z,1.64
2023-02-15T23:49:51.345Z,1.72
2023-02-15T23:52:19.534Z,1.72
2023-02-15T23:54:47.794Z,1.67
2023-02-15T23:57:16.117Z,1.64
2023-02-15T23:59:46.578Z,1.65
